Time;durP1;ratioP1;P1;durP2;ratioP2;P2;SDS_P1;SDS_P2;PMS_P1;PMS_P2;Temp;Humidity;BMP_temperature;BMP_pressure;BME280_temperature;BME280_humidity;BME280_pressure;Samples;Min_cycle;Max_cycle;Signal;HPM_P1;HPM_P2
2022/05/09 00:02:16;;;;;;;17.17;10.52;;;10.90;99.90;;;;;;5068667;28;20086;-73
2022/05/09 00:04:43;;;;;;;13.98;10.10;;;10.90;99.90;;;;;;5071805;28;20059;-73
2022/05/09 00:07:10;;;;;;;16.42;10.48;;;10.90;99.90;;;;;;5055819;28;20746;-73
2022/05/09 00:09:37;;;;;;;15.13;9.95;;;10.90;99.90;;;;;;5073370;28;20049;-73
2022/05/09 00:12:04;;;;;;;19.00;10.35;;;10.90;99.90;;;;;;5071710;28;20067;-73
2022/05/09 00:14:31;;;;;;;;;;;10.90;99.90;;;;;;5073564;28;20048;-73
2022/05/09 00:16:58;;;;;;;18.35;10.52;;;10.90;99.90;;;;;;5073124;28;19924;-73
2022/05/09 00:19:24;;;;;;;18.73;11.10;;;10.90;99.90;;;;;;5073289;28;20056;-73
2022/05/09 00:21:52;;;;;;;17.45;10.93;;;10.90;99.90;;;;;;5064272;28;20048;-73
2022/05/09 00:24:20;;;;;;;17.38;9.98;;;10.90;99.90;;;;;;5073079;28;20052;-73
2022/05/09 00:26:51;;;;;;;23.52;10.50;;;10.90;99.90;;;;;;5072599;28;20060;-73
2022/05/09 00:29:20;;;;;;;13.40;8.73;;;10.90;99.90;;;;;;5053971;28;20631;-73
2022/05/09 00:31:49;;;;;;;17.98;9.50;;;10.90;99.90;;;;;;5072384;28;20515;-73
2022/05/09 00:34:17;;;;;;;13.32;9.48;;;10.80;99.90;;;;;;5072965;28;20044;-73
2022/05/09 00:36:46;;;;;;;13.93;9.73;;;10.80;99.90;;;;;;5068921;28;20516;-73
2022/05/09 00:39:14;;;;;;;16.10;9.70;;;10.80;99.90;;;;;;5072490;28;20067;-73
2022/05/09 00:41:42;;;;;;;17.48;9.02;;;10.80;99.90;;;;;;5072254;28;20050;-73
2022/05/09 00:44:09;;;;;;;15.43;9.40;;;10.80;99.90;;;;;;5072785;28;20088;-73
2022/05/09 00:46:38;;;;;;;16.02;9.70;;;10.80;99.90;;;;;;5067382;28;20037;-73
2022/05/09 00:49:25;;;;;;;14.57;9.70;;;10.80;99.90;;;;;;5072425;28;20496;-74
2022/05/09 00:52:13;;;;;;;15.88;10.38;;;10.90;99.90;;;;;;5072010;28;20040;-73
2022/05/09 00:54:47;;;;;;;17.48;10.27;;;10.80;99.90;;;;;;5072350;28;20048;-73
2022/05/09 00:57:22;;;;;;;16.15;10.50;;;10.80;99.90;;;;;;5064699;28;20396;-73
2022/05/09 00:59:52;;;;;;;15.77;9.82;;;10.90;99.90;;;;;;5072280;28;20098;-73
2022/05/09 01:02:20;;;;;;;14.38;10.05;;;10.90;99.90;;;;;;5072266;28;20053;-73
2022/05/09 01:04:57;;;;;;;19.20;11.90;;;10.90;99.90;;;;;;5070585;28;20044;-73
2022/05/09 01:07:24;;;;;;;27.38;11.30;;;10.90;99.90;;;;;;5072415;28;20051;-73
2022/05/09 01:09:51;;;;;;;;;;;11.00;99.90;;;;;;5072270;28;20037;-74
2022/05/09 01:12:24;;;;;;;12.55;9.25;;;11.00;99.90;;;;;;5072274;28;19925;-74
2022/05/09 01:14:51;;;;;;;17.48;9.65;;;10.90;99.90;;;;;;5068397;28;20037;-74
2022/05/09 01:17:19;;;;;;;;;;;10.90;99.90;;;;;;5072810;28;20090;-74
2022/05/09 01:19:47;;;;;;;15.63;9.63;;;10.90;99.90;;;;;;5072366;28;19962;-74
2022/05/09 01:22:34;;;;;;;15.48;10.20;;;11.00;99.90;;;;;;5071973;28;20041;-73
2022/05/09 01:25:06;;;;;;;17.05;10.35;;;11.00;99.90;;;;;;5068041;28;20067;-73
2022/05/09 01:27:35;;;;;;;18.27;10.88;;;11.00;99.90;;;;;;5072050;28;20044;-73
2022/05/09 01:30:18;;;;;;;17.42;11.18;;;11.00;99.90;;;;;;5071666;28;20048;-74
2022/05/09 01:33:03;;;;;;;18.33;10.63;;;11.10;99.90;;;;;;5071415;28;20059;-74
2022/05/09 01:35:53;;;;;;;15.73;10.50;;;11.10;99.90;;;;;;5071286;28;20066;-74
2022/05/09 01:38:29;;;;;;;15.95;10.02;;;11.10;99.90;;;;;;5071922;28;20047;-73
2022/05/09 01:40:56;;;;;;;17.35;10.45;;;11.10;99.90;;;;;;5071596;28;20056;-73
2022/05/09 01:43:37;;;;;;;16.80;10.30;;;11.00;99.90;;;;;;5069684;28;20056;-73
2022/05/09 01:46:16;;;;;;;13.82;9.73;;;11.10;99.90;;;;;;5065030;28;20056;-73
2022/05/09 01:51:30;;;;;;;16.55;8.85;;;11.10;99.90;;;;;;5067731;28;20041;-73
2022/05/09 01:53:58;;;;;;;16.58;10.07;;;11.10;99.90;;;;;;5071516;28;20047;-74
2022/05/09 01:56:28;;;;;;;16.83;10.93;;;11.10;99.90;;;;;;5071636;28;20037;-74
2022/05/09 01:58:55;;;;;;;15.95;9.70;;;11.10;99.90;;;;;;5071748;28;20041;-74
2022/05/09 02:01:25;;;;;;;18.02;10.60;;;11.10;99.90;;;;;;5069558;28;20055;-74
2022/05/09 02:03:53;;;;;;;13.40;9.10;;;11.10;99.90;;;;;;5071556;28;20170;-73
2022/05/09 02:06:23;;;;;;;15.80;9.82;;;11.10;99.90;;;;;;5071608;28;20048;-74
2022/05/09 02:08:50;;;;;;;15.93;8.85;;;11.10;99.90;;;;;;5067621;28;20052;-73
2022/05/09 02:11:17;;;;;;;12.73;8.88;;;11.10;99.90;;;;;;5070888;28;20044;-73
2022/05/09 02:13:44;;;;;;;16.80;8.57;;;11.10;99.90;;;;;;5071569;28;20082;-74
2022/05/09 02:16:11;;;;;;;;;;;11.10;99.90;;;;;;5071954;28;20102;-73
2022/05/09 02:18:39;;;;;;;13.77;7.85;;;11.10;99.90;;;;;;5064295;28;19927;-74
2022/05/09 02:21:05;;;;;;;;;;;11.00;99.90;;;;;;5071382;28;20098;-73
2022/05/09 02:23:33;;;;;;;12.02;8.43;;;11.00;99.90;;;;;;5053173;28;19928;-73
2022/05/09 02:26:01;;;;;;;12.75;8.23;;;11.00;99.90;;;;;;5071457;28;20048;-73
2022/05/09 02:28:28;;;;;;;14.07;9.48;;;11.00;99.90;;;;;;5062648;28;20500;-74
2022/05/09 02:30:56;;;;;;;17.42;9.63;;;11.00;99.90;;;;;;5062853;28;20055;-74
2022/05/09 02:33:22;;;;;;;14.00;9.57;;;11.00;99.90;;;;;;5071331;28;20049;-74
2022/05/09 02:35:50;;;;;;;14.70;9.77;;;10.90;99.90;;;;;;5063760;28;20047;-74
2022/05/09 02:38:16;;;;;;;;;;;10.90;99.90;;;;;;5071630;28;20040;-74
2022/05/09 02:40:45;;;;;;;13.25;9.35;;;11.00;99.90;;;;;;5070839;28;19920;-73
2022/05/09 02:43:11;;;;;;;15.45;10.57;;;11.00;99.90;;;;;;5068641;28;20501;-74
2022/05/09 02:45:39;;;;;;;14.05;10.20;;;11.00;99.90;;;;;;5073977;28;20496;-74
2022/05/09 02:48:06;;;;;;;15.65;9.68;;;11.00;99.90;;;;;;5057334;28;20151;-73
2022/05/09 02:50:33;;;;;;;12.45;8.82;;;11.00;99.90;;;;;;5072575;28;20052;-74
2022/05/09 02:52:59;;;;;;;14.30;10.00;;;11.10;99.90;;;;;;5074551;28;20036;-73
2022/05/09 02:55:26;;;;;;;17.88;9.43;;;11.10;99.90;;;;;;5075192;28;20090;-73
2022/05/09 02:57:53;;;;;;;15.10;9.73;;;11.10;99.90;;;;;;5074955;28;20094;-73
2022/05/09 03:00:25;;;;;;;15.95;9.95;;;11.10;99.90;;;;;;5070255;28;20075;-74
2022/05/09 03:05:40;;;;;;;19.08;10.25;;;11.10;99.90;;;;;;5074723;28;20071;-74
2022/05/09 03:08:08;;;;;;;12.80;9.38;;;11.10;99.90;;;;;;5072632;28;20098;-73
2022/05/09 03:10:37;;;;;;;15.98;10.40;;;11.10;99.90;;;;;;5056616;28;20078;-74
2022/05/09 03:13:06;;;;;;;13.73;9.57;;;11.10;99.90;;;;;;5056584;28;20446;-73
2022/05/09 03:15:43;;;;;;;11.95;8.25;;;11.10;99.90;;;;;;5065857;28;20649;-74
2022/05/09 03:18:11;;;;;;;11.77;8.73;;;11.00;99.90;;;;;;5074552;28;20040;-73
2022/05/09 03:20:39;;;;;;;11.65;8.80;;;11.00;99.90;;;;;;5074234;28;20404;-74
2022/05/09 03:23:07;;;;;;;11.07;8.35;;;11.00;99.90;;;;;;5074327;28;20056;-74
2022/05/09 03:25:36;;;;;;;15.95;8.45;;;11.00;99.90;;;;;;5066001;28;20048;-74
2022/05/09 03:28:04;;;;;;;11.02;8.32;;;10.90;99.90;;;;;;5074274;28;20052;-73
2022/05/09 03:30:30;;;;;;;15.43;8.48;;;10.90;99.90;;;;;;5074039;28;20052;-73
2022/05/09 03:32:57;;;;;;;11.88;8.50;;;10.90;99.90;;;;;;5069423;28;20033;-74
2022/05/09 03:35:24;;;;;;;12.68;8.73;;;10.80;99.90;;;;;;5074145;28;20049;-73
2022/05/09 03:37:53;;;;;;;14.15;9.27;;;10.80;99.90;;;;;;5074129;28;20488;-74
2022/05/09 03:40:21;;;;;;;13.00;8.68;;;10.80;99.90;;;;;;5073671;28;20098;-74
2022/05/09 03:42:48;;;;;;;16.92;8.98;;;10.80;99.90;;;;;;5068468;28;20045;-74
2022/05/09 03:45:16;;;;;;;11.98;8.48;;;10.70;99.90;;;;;;5074042;28;20052;-73
2022/05/09 03:47:43;;;;;;;12.70;9.10;;;10.70;99.90;;;;;;5074056;28;20044;-74
2022/05/09 03:50:12;;;;;;;13.82;8.07;;;10.70;99.90;;;;;;5070693;28;20044;-73
2022/05/09 03:52:43;;;;;;;13.93;8.93;;;10.80;99.90;;;;;;5072351;28;20041;-73
2022/05/09 03:55:12;;;;;;;16.30;9.93;;;10.80;99.90;;;;;;5073358;28;20508;-74
2022/05/09 03:57:54;;;;;;;11.60;8.30;;;10.80;99.90;;;;;;5073930;28;20083;-74
2022/05/09 04:00:25;;;;;;;13.88;9.07;;;10.90;99.90;;;;;;5068602;28;20049;-74
2022/05/09 04:02:51;;;;;;;13.27;8.88;;;10.90;99.90;;;;;;5073687;28;20492;-74
2022/05/09 04:06:08;;;;;;;11.43;8.57;;;10.90;99.90;;;;;;5097419;22;20063;-64
2022/05/09 04:08:35;;;;;;;13.05;8.55;;;10.90;99.90;;;;;;5093397;28;20446;-64
2022/05/09 04:11:02;;;;;;;11.57;8.15;;;11.00;99.90;;;;;;5083646;28;20036;-64
2022/05/09 04:13:28;;;;;;;12.45;8.25;;;11.00;99.90;;;;;;5081036;28;20040;-64
2022/05/09 04:18:43;;;;;;;13.85;8.45;;;11.20;99.90;;;;;;5089025;28;20039;-64
2022/05/09 04:21:13;;;;;;;12.13;8.65;;;11.20;99.90;;;;;;5083684;28;20036;-64
2022/05/09 04:23:40;;;;;;;13.93;8.77;;;11.20;99.90;;;;;;5090475;28;20040;-64
2022/05/09 04:26:07;;;;;;;;;;;11.30;99.90;;;;;;5093743;28;20036;-64
2022/05/09 04:28:33;;;;;;;14.77;8.90;;;11.30;99.90;;;;;;5092974;28;19920;-64
2022/05/09 04:31:00;;;;;;;14.18;9.35;;;11.40;99.90;;;;;;5081225;28;20037;-64
2022/05/09 04:33:29;;;;;;;16.35;9.02;;;11.30;99.90;;;;;;5089829;28;20044;-64
2022/05/09 04:35:57;;;;;;;;;;;11.30;99.90;;;;;;5093359;28;20097;-64
2022/05/09 04:38:24;;;;;;;11.68;8.35;;;11.30;99.90;;;;;;5083420;28;19966;-65
2022/05/09 04:40:54;;;;;;;15.52;9.13;;;11.20;99.90;;;;;;5092525;28;20052;-64
2022/05/09 04:43:23;;;;;;;15.95;8.98;;;11.20;99.90;;;;;;5093008;28;20046;-64
2022/05/09 04:45:50;;;;;;;12.95;9.15;;;11.30;99.90;;;;;;5082383;28;20102;-64
2022/05/09 04:48:19;;;;;;;14.40;9.65;;;11.20;99.90;;;;;;5079619;28;20044;-64
2022/05/09 04:50:46;;;;;;;12.90;8.93;;;11.30;99.90;;;;;;5092784;28;20048;-64
2022/05/09 04:53:13;;;;;;;;;;;11.30;99.90;;;;;;5091443;28;20380;-64
2022/05/09 04:55:40;;;;;;;18.80;8.85;;;11.40;99.90;;;;;;5074289;28;20273;-64
2022/05/09 04:58:10;;;;;;;15.25;9.88;;;11.50;99.90;;;;;;5092953;28;20047;-64
2022/05/09 05:00:37;;;;;;;14.35;9.48;;;11.50;99.90;;;;;;5092604;28;20082;-62
2022/05/09 05:03:04;;;;;;;16.10;9.60;;;11.60;99.90;;;;;;5091417;28;20036;-64
2022/05/09 05:05:31;;;;;;;16.13;9.70;;;11.60;99.90;;;;;;5075542;28;20042;-64
2022/05/09 05:07:58;;;;;;;13.48;9.15;;;11.70;99.90;;;;;;5091949;28;20680;-64
2022/05/09 05:10:28;;;;;;;18.75;9.75;;;11.70;99.90;;;;;;5091487;28;20036;-64
2022/05/09 05:12:56;;;;;;;19.67;10.57;;;11.70;99.90;;;;;;5086745;28;20105;-64
2022/05/09 05:15:23;;;;;;;15.85;10.10;;;11.80;99.90;;;;;;5086735;28;20067;-64
2022/05/09 05:17:50;;;;;;;16.27;10.30;;;11.90;99.90;;;;;;5086678;28;20040;-64
2022/05/09 05:20:17;;;;;;;16.08;10.38;;;12.00;99.90;;;;;;5089936;28;20044;-64
2022/05/09 05:22:47;;;;;;;14.38;10.30;;;12.10;99.90;;;;;;5074041;28;20592;-64
2022/05/09 05:25:18;;;;;;;13.95;9.73;;;12.10;99.90;;;;;;5092327;28;20075;-64
2022/05/09 05:27:47;;;;;;;14.27;9.57;;;12.20;99.90;;;;;;5091237;28;20055;-64
2022/05/09 05:30:15;;;;;;;16.88;9.95;;;12.30;99.90;;;;;;5084966;28;20443;-64
2022/05/09 05:32:42;;;;;;;22.30;10.07;;;12.40;99.90;;;;;;5073345;28;20036;-64
2022/05/09 05:35:13;;;;;;;16.75;10.05;;;12.50;99.90;;;;;;5092094;28;20044;-64
2022/05/09 05:37:40;;;;;;;17.65;9.48;;;12.50;99.90;;;;;;5092278;28;20048;-64
2022/05/09 05:40:09;;;;;;;13.77;9.57;;;12.50;99.90;;;;;;5087020;28;20043;-64
2022/05/09 05:42:39;;;;;;;13.18;9.82;;;12.40;99.90;;;;;;5072720;28;20044;-64
2022/05/09 05:45:07;;;;;;;15.48;10.27;;;12.60;99.90;;;;;;5092032;28;20549;-64
2022/05/09 05:47:34;;;;;;;17.38;10.63;;;12.60;99.90;;;;;;5091973;28;20044;-65
2022/05/09 05:50:03;;;;;;;13.75;9.38;;;12.70;99.90;;;;;;5084495;28;20040;-64
2022/05/09 05:52:31;;;;;;;14.82;9.85;;;12.70;99.90;;;;;;5080233;28;20093;-65
2022/05/09 05:54:58;;;;;;;11.35;8.98;;;12.80;99.90;;;;;;5092173;28;20054;-64
2022/05/09 05:57:30;;;;;;;14.07;9.50;;;12.90;99.90;;;;;;5092098;28;20048;-64
2022/05/09 05:59:59;;;;;;;14.23;10.07;;;12.90;99.90;;;;;;5079213;28;20086;-64
2022/05/09 06:02:27;;;;;;;15.23;9.52;;;13.00;99.90;;;;;;5079671;28;20055;-64
2022/05/09 06:04:55;;;;;;;13.02;8.77;;;13.10;99.90;;;;;;5091570;28;20052;-64
2022/05/09 06:07:22;;;;;;;16.88;10.57;;;13.00;99.90;;;;;;5082669;28;20443;-64
2022/05/09 06:09:51;;;;;;;14.88;9.57;;;12.90;99.90;;;;;;5082634;28;20063;-64
2022/05/09 06:12:21;;;;;;;13.75;10.27;;;12.80;99.90;;;;;;5091834;28;20538;-64
2022/05/09 06:15:24;;;;;;;13.70;10.00;;;12.90;99.90;;;;;;5084674;28;21260;-64
2022/05/09 06:17:37;;;;;;;17.02;10.50;;;12.80;99.90;;;;;;5081417;28;20052;-64
2022/05/09 06:20:05;;;;;;;15.45;10.50;;;12.80;99.90;;;;;;5091110;28;20116;-64
2022/05/09 06:22:36;;;;;;;15.23;10.27;;;12.80;99.90;;;;;;5091597;28;20044;-64
2022/05/09 06:25:03;;;;;;;18.48;10.07;;;12.80;99.90;;;;;;5076109;28;20070;-64
2022/05/09 06:27:31;;;;;;;14.82;10.45;;;12.90;99.90;;;;;;5088109;28;20044;-64
2022/05/09 06:29:59;;;;;;;;;;;13.00;99.90;;;;;;5090858;28;20488;-64
2022/05/09 06:32:26;;;;;;;;;;;13.00;99.90;;;;;;5088106;28;19924;-64
2022/05/09 06:34:53;;;;;;;15.65;10.18;;;13.00;99.90;;;;;;5083301;28;19969;-64
2022/05/09 06:37:20;;;;;;;15.65;10.50;;;13.20;99.90;;;;;;5091541;28;20081;-64
2022/05/09 06:39:47;;;;;;;16.35;10.30;;;13.30;99.90;;;;;;5087003;28;20052;-64
2022/05/09 06:42:14;;;;;;;15.65;9.85;;;13.30;99.90;;;;;;5077106;28;20044;-64
2022/05/09 06:44:40;;;;;;;13.05;10.25;;;13.40;99.90;;;;;;5090888;28;20028;-64
2022/05/09 06:47:07;;;;;;;15.65;9.90;;;13.60;99.90;;;;;;5091265;28;20043;-64
2022/05/09 06:49:34;;;;;;;13.10;9.23;;;13.70;99.90;;;;;;5075236;28;20043;-64
2022/05/09 06:52:01;;;;;;;11.57;8.45;;;13.80;99.90;;;;;;5089432;28;20051;-64
2022/05/09 06:54:27;;;;;;;14.60;9.13;;;13.80;99.90;;;;;;5090695;28;20090;-64
2022/05/09 06:56:54;;;;;;;13.55;8.90;;;13.80;99.90;;;;;;5080999;28;20044;-64
2022/05/09 06:59:21;;;;;;;12.57;9.18;;;13.90;99.90;;;;;;5086545;28;20036;-64
2022/05/09 07:01:50;;;;;;;11.52;8.85;;;14.10;99.90;;;;;;5090522;28;20458;-64
2022/05/09 07:04:18;;;;;;;12.80;8.73;;;14.20;99.90;;;;;;5091147;28;20082;-64
2022/05/09 07:06:45;;;;;;;13.38;8.50;;;14.30;99.90;;;;;;5080575;28;20052;-64
2022/05/09 07:09:13;;;;;;;12.82;8.90;;;14.50;99.90;;;;;;5076701;28;20042;-65
2022/05/09 07:11:40;;;;;;;12.70;8.43;;;14.60;99.90;;;;;;5075158;28;20545;-64
2022/05/09 07:14:07;;;;;;;11.35;7.55;;;14.80;99.90;;;;;;5078375;28;20036;-64
2022/05/09 07:16:34;;;;;;;10.55;6.75;;;14.90;99.90;;;;;;5077939;28;20066;-64
2022/05/09 07:19:01;;;;;;;12.38;7.65;;;15.10;99.90;;;;;;5090988;28;20036;-64
2022/05/09 07:21:27;;;;;;;11.30;7.18;;;15.20;99.90;;;;;;5080259;28;20036;-64
2022/05/09 07:23:54;;;;;;;9.95;7.22;;;15.50;99.90;;;;;;5072076;28;20048;-64
2022/05/09 07:26:21;;;;;;;9.43;6.65;;;15.70;99.90;;;;;;5070662;28;20153;-64
2022/05/09 07:28:48;;;;;;;9.48;6.35;;;15.80;99.90;;;;;;5070687;28;20504;-64
2022/05/09 07:31:15;;;;;;;8.20;6.20;;;15.80;99.90;;;;;;5071924;28;20052;-64
2022/05/09 07:33:43;;;;;;;;;;;16.10;99.90;;;;;;5084504;28;20525;-64
2022/05/09 07:36:11;;;;;;;10.67;6.40;;;16.10;99.90;;;;;;5094194;28;19932;-64
2022/05/09 07:38:37;;;;;;;9.60;6.25;;;15.90;99.90;;;;;;5094380;28;20507;-64
2022/05/09 07:41:04;;;;;;;9.80;6.82;;;15.80;99.90;;;;;;5078700;28;20044;-64
2022/05/09 07:43:31;;;;;;;9.70;6.32;;;15.80;99.90;;;;;;5090908;28;20040;-64
2022/05/09 07:45:57;;;;;;;10.27;7.20;;;15.80;99.90;;;;;;5093939;28;20145;-64
2022/05/09 07:48:26;;;;;;;;;;;15.90;99.90;;;;;;5093484;28;20393;-64
2022/05/09 07:50:54;;;;;;;11.98;8.10;;;16.10;99.90;;;;;;5076847;28;19927;-64
2022/05/09 07:53:24;;;;;;;9.27;7.20;;;16.10;99.90;;;;;;5093825;28;20070;-64
2022/05/09 07:55:53;;;;;;;14.88;8.15;;;16.00;99.90;;;;;;5094013;28;20036;-64
2022/05/09 07:58:21;;;;;;;15.40;7.82;;;16.00;99.90;;;;;;5077757;28;20086;-64
2022/05/09 08:00:48;;;;;;;14.23;7.63;;;16.20;99.90;;;;;;5080382;28;20049;-64
2022/05/09 08:03:17;;;;;;;11.68;6.85;;;16.20;99.90;;;;;;5074587;28;20041;-64
2022/05/09 08:05:44;;;;;;;8.75;7.43;;;16.30;99.90;;;;;;5065289;28;20043;-64
2022/05/09 08:08:12;;;;;;;;;;;16.30;99.90;;;;;;5075321;28;20442;-64
2022/05/09 08:10:39;;;;;;;8.37;6.47;;;16.40;99.90;;;;;;5078262;28;19928;-64
2022/05/09 08:13:07;;;;;;;8.77;5.90;;;16.50;99.90;;;;;;5073192;28;20102;-64
2022/05/09 08:15:35;;;;;;;10.05;5.78;;;16.70;99.90;;;;;;5080742;28;20090;-64
2022/05/09 08:18:03;;;;;;;9.38;5.90;;;17.00;99.90;;;;;;5075528;28;20044;-64
2022/05/09 08:20:33;;;;;;;10.88;6.32;;;17.10;99.90;;;;;;5083708;28;20417;-64
2022/05/09 08:23:10;;;;;;;6.90;5.53;;;17.20;99.90;;;;;;5077611;28;20084;-64
2022/05/09 08:25:41;;;;;;;11.85;5.45;;;17.40;99.90;;;;;;5093415;28;20412;-65
2022/05/09 08:28:09;;;;;;;10.93;7.47;;;17.60;99.90;;;;;;5093285;28;20048;-64
2022/05/09 08:30:37;;;;;;;8.57;6.55;;;17.70;99.90;;;;;;5081401;28;20049;-64
2022/05/09 08:33:15;;;;;;;11.45;6.18;;;17.70;99.90;;;;;;5086143;28;20089;-64
2022/05/09 08:35:44;;;;;;;10.20;6.70;;;17.70;99.90;;;;;;5093261;28;20044;-64
2022/05/09 08:38:12;;;;;;;8.15;5.28;;;17.80;99.90;;;;;;5093253;28;20051;-65
2022/05/09 08:41:00;;;;;;;8.57;5.38;;;17.90;99.90;;;;;;5074301;28;20046;-64
2022/05/09 08:43:45;;;;;;;;;;;18.10;99.90;;;;;;5084850;28;20051;-65
2022/05/09 08:46:22;;;;;;;9.88;5.47;;;18.40;99.90;;;;;;5072534;28;20291;-65
2022/05/09 08:48:58;;;;;;;6.88;5.18;;;18.40;99.90;;;;;;5075725;28;20043;-64
2022/05/09 08:51:43;;;;;;;6.90;5.50;;;18.60;99.90;;;;;;5092469;28;20051;-65
2022/05/09 08:54:16;;;;;;;7.00;5.68;;;18.70;99.90;;;;;;5092805;28;20048;-65
2022/05/09 08:56:46;;;;;;;6.35;4.93;;;18.60;99.90;;;;;;5078454;28;20037;-65
2022/05/09 08:59:23;;;;;;;8.38;5.45;;;19.00;99.90;;;;;;5087082;28;20086;-65
2022/05/09 09:02:03;;;;;;;6.47;4.88;;;19.20;99.90;;;;;;5092396;28;20040;-65
2022/05/09 09:04:33;;;;;;;6.53;5.63;;;19.30;99.90;;;;;;5092031;28;20052;-65
2022/05/09 09:07:31;;;;;;;14.00;5.30;;;19.30;99.90;;;;;;5079049;28;20044;-65
2022/05/09 09:10:16;;;;;;;7.78;5.38;;;19.20;99.90;;;;;;5071928;28;20101;-65
2022/05/09 09:13:01;;;;;;;7.10;5.35;;;19.00;99.90;;;;;;5071931;28;20495;-65
2022/05/09 09:15:40;;;;;;;10.93;6.18;;;19.20;99.90;;;;;;5071855;28;20519;-64
2022/05/09 09:18:32;;;;;;;8.25;5.47;;;19.20;99.90;;;;;;5085936;28;20113;-65
2022/05/09 09:21:04;;;;;;;9.15;5.35;;;19.20;99.90;;;;;;5091503;28;20152;-65
2022/05/09 09:24:07;;;;;;;8.63;5.22;;;19.10;99.90;;;;;;5088052;28;20056;-64
2022/05/09 09:26:45;;;;;;;9.95;5.47;;;19.10;99.90;;;;;;5080887;28;20098;-65
2022/05/09 09:29:31;;;;;;;9.07;4.88;;;19.20;99.90;;;;;;5092617;28;20040;-65
2022/05/09 09:32:03;;;;;;;7.88;4.63;;;19.30;99.90;;;;;;5092099;28;20044;-65
2022/05/09 09:34:42;;;;;;;8.10;4.60;;;19.30;99.90;;;;;;5075328;28;20550;-64
2022/05/09 09:37:35;;;;;;;5.00;4.50;;;19.40;99.90;;;;;;5085963;28;20040;-65
2022/05/09 09:40:04;;;;;;;12.85;5.15;;;19.40;99.90;;;;;;5080878;28;20059;-65
2022/05/09 09:42:31;;;;;;;9.85;4.57;;;19.50;99.90;;;;;;5078537;28;20446;-65
2022/05/09 09:45:00;;;;;;;8.20;5.00;;;19.50;99.90;;;;;;5084456;28;20044;-65
2022/05/09 09:47:29;;;;;;;12.20;6.85;;;19.50;99.90;;;;;;5091830;28;20048;-65
2022/05/09 09:50:20;;;;;;;10.07;6.32;;;19.70;99.90;;;;;;5091768;28;20043;-65
2022/05/09 09:52:53;;;;;;;7.90;6.25;;;19.70;99.90;;;;;;5073787;28;20048;-65
2022/05/09 09:55:28;;;;;;;10.55;6.45;;;19.50;99.90;;;;;;5087294;28;20178;-65
2022/05/09 09:57:58;;;;;;;9.73;6.97;;;19.50;99.90;;;;;;5091881;28;20044;-65
2022/05/09 10:00:35;;;;;;;14.45;7.63;;;19.50;99.90;;;;;;5091380;28;20036;-66
2022/05/09 10:03:22;;;;;;;10.63;7.97;;;19.50;99.90;;;;;;5071456;28;20515;-66
2022/05/09 10:06:27;;;;;;;10.40;7.88;;;19.20;99.90;;;;;;5088340;22;20052;-68
2022/05/09 10:08:59;;;;;;;12.98;8.23;;;19.20;99.90;;;;;;4989655;28;20086;-69
2022/05/09 10:11:29;;;;;;;12.52;9.18;;;19.30;99.90;;;;;;5059201;28;20059;-68
2022/05/09 10:14:05;;;;;;;14.55;10.60;;;19.30;99.90;;;;;;5069495;28;20037;-68
2022/05/09 10:16:40;;;;;;;14.57;9.10;;;19.10;99.90;;;;;;5068958;28;20455;-68
2022/05/09 10:19:12;;;;;;;11.05;9.25;;;19.10;99.90;;;;;;5068443;28;20141;-70
2022/05/09 10:27:21;;;;;;;13.32;9.85;;;18.90;99.90;;;;;;5070250;28;19970;-68
2022/05/09 10:29:54;;;;;;;14.30;10.23;;;19.00;99.90;;;;;;5069243;28;20052;-68
2022/05/09 10:32:49;;;;;;;14.93;8.85;;;19.00;99.90;;;;;;5070848;28;20025;-68
2022/05/09 10:35:35;;;;;;;13.57;9.75;;;19.00;99.90;;;;;;5069774;28;20045;-68
2022/05/09 10:38:12;;;;;;;15.15;9.23;;;18.90;99.90;;;;;;5068814;28;20036;-68
2022/05/09 10:40:50;;;;;;;14.20;10.75;;;18.80;99.90;;;;;;5070620;28;20404;-67
2022/05/09 10:43:38;;;;;;;15.00;9.65;;;18.80;99.90;;;;;;5069635;28;20044;-67
2022/05/09 10:46:11;;;;;;;18.93;11.70;;;18.70;99.90;;;;;;5068816;28;20475;-67
2022/05/09 10:48:47;;;;;;;12.98;11.02;;;18.60;99.90;;;;;;5067597;28;20119;-67
2022/05/09 10:51:21;;;;;;;16.25;10.88;;;18.80;99.90;;;;;;5049739;28;20118;-68
2022/05/09 10:54:18;;;;;;;11.57;9.55;;;18.80;99.90;;;;;;5050911;28;20041;-68
2022/05/09 10:56:54;;;;;;;;;;;18.90;99.90;;;;;;5059013;28;20087;-63
2022/05/09 10:59:27;;;;;;;15.00;10.98;;;19.00;99.90;;;;;;5063720;28;20019;-64
2022/05/09 11:02:17;;;;;;;18.95;10.30;;;19.10;99.90;;;;;;5050365;28;20481;-64
2022/05/09 11:04:44;;;;;;;13.65;9.30;;;19.20;99.90;;;;;;5060622;28;20068;-64
2022/05/09 11:07:50;;;;;;;9.50;8.15;;;19.40;99.90;;;;;;5073680;28;20044;-65
2022/05/09 11:10:33;;;;;;;14.00;8.45;;;19.50;99.90;;;;;;5071293;28;20123;-65
2022/05/09 11:13:32;;;;;;;10.70;8.32;;;19.50;99.90;;;;;;5069874;28;20052;-65
2022/05/09 11:16:17;;;;;;;16.50;9.82;;;19.50;99.90;;;;;;5071608;28;20036;-65
2022/05/09 11:19:01;;;;;;;14.98;9.00;;;19.50;99.90;;;;;;5074465;28;20072;-64
2022/05/09 11:21:54;;;;;;;13.75;8.82;;;19.50;99.90;;;;;;5074026;28;20052;-63
2022/05/09 11:24:39;;;;;;;9.75;7.80;;;19.70;99.90;;;;;;5071653;28;20443;-64
2022/05/09 11:27:43;;;;;;;16.52;8.70;;;19.50;99.90;;;;;;5054557;28;20056;-65
2022/05/09 11:30:35;;;;;;;11.05;7.38;;;19.50;99.90;;;;;;5053848;28;20092;-65
2022/05/09 11:33:33;;;;;;;11.80;7.32;;;19.60;99.90;;;;;;5067351;28;20083;-65
2022/05/09 11:36:08;;;;;;;10.45;7.68;;;19.60;99.90;;;;;;5045951;28;20052;-66
2022/05/09 11:39:01;;;;;;;12.30;7.25;;;19.60;99.90;;;;;;5054175;28;20087;-65
2022/05/09 11:41:37;;;;;;;13.05;6.65;;;19.60;99.90;;;;;;5061657;28;20049;-66
2022/05/09 11:44:19;;;;;;;11.65;6.78;;;19.60;99.90;;;;;;5066635;28;20055;-66
2022/05/09 11:47:23;;;;;;;16.52;7.30;;;19.70;99.90;;;;;;5073906;28;20045;-65
2022/05/09 11:49:58;;;;;;;10.00;7.68;;;19.80;99.90;;;;;;5066943;28;20574;-65
2022/05/09 11:52:37;;;;;;;10.43;6.50;;;19.80;99.90;;;;;;5066003;28;20041;-65
2022/05/09 11:55:13;;;;;;;8.55;6.07;;;19.90;99.90;;;;;;5053822;28;20041;-65
2022/05/09 11:57:43;;;;;;;8.95;6.40;;;19.80;99.90;;;;;;5053921;28;20098;-64
2022/05/09 12:00:33;;;;;;;8.23;6.28;;;19.80;99.90;;;;;;5066676;28;20455;-66
2022/05/09 12:03:10;;;;;;;8.27;6.28;;;19.90;99.90;;;;;;5047602;28;20520;-66
2022/05/09 12:05:38;;;;;;;15.90;7.43;;;19.90;99.90;;;;;;5053619;28;20581;-65
2022/05/09 12:08:13;;;;;;;14.82;6.88;;;20.00;99.90;;;;;;5058117;28;20068;-65
2022/05/09 12:10:46;;;;;;;9.68;7.15;;;20.00;99.90;;;;;;5063655;28;20041;-65
2022/05/09 12:13:20;;;;;;;10.75;5.88;;;20.10;99.90;;;;;;5053274;28;20037;-65
2022/05/09 12:15:59;;;;;;;9.50;6.15;;;20.20;99.90;;;;;;5063572;28;20037;-65
2022/05/09 12:18:51;;;;;;;10.55;6.82;;;20.20;99.90;;;;;;5057473;28;20041;-65
2022/05/09 12:21:37;;;;;;;7.53;6.18;;;20.20;99.90;;;;;;5053105;28;20607;-65
2022/05/09 12:24:17;;;;;;;8.27;6.53;;;20.20;99.90;;;;;;5057499;28;20044;-66
2022/05/09 12:26:46;;;;;;;10.43;6.85;;;20.30;99.90;;;;;;5063171;28;20099;-72
2022/05/09 12:29:16;;;;;;;14.63;6.68;;;20.30;99.90;;;;;;5053313;28;20037;-65
2022/05/09 12:31:46;;;;;;;10.35;6.00;;;20.40;99.90;;;;;;5052937;28;20531;-66
2022/05/09 12:34:22;;;;;;;12.00;6.28;;;20.50;99.90;;;;;;5055163;28;20127;-66
2022/05/09 12:36:51;;;;;;;12.02;5.82;;;20.50;99.90;;;;;;5053749;28;20055;-66
2022/05/09 12:39:25;;;;;;;11.10;6.35;;;20.60;99.90;;;;;;5053094;28;20037;-66
2022/05/09 12:41:59;;;;;;;12.05;6.53;;;20.80;99.90;;;;;;5067249;28;20439;-66
2022/05/09 12:44:45;;;;;;;11.10;6.10;;;20.80;99.90;;;;;;5071015;28;20056;-66
2022/05/09 12:47:16;;;;;;;7.97;6.00;;;20.80;99.90;;;;;;5069316;28;20052;-65
2022/05/09 12:49:54;;;;;;;10.45;6.22;;;20.80;99.90;;;;;;5070896;28;20040;-66
2022/05/09 12:52:27;;;;;;;8.95;6.22;;;20.90;99.90;;;;;;5068470;28;20098;-67
2022/05/09 12:57:45;;;;;;;8.30;5.97;;;21.30;99.90;;;;;;5070694;28;20049;-64
2022/05/09 13:00:20;;;;;;;;;;;21.40;99.90;;;;;;5052933;28;20468;-63
2022/05/09 13:03:08;;;;;;;9.80;5.65;;;21.60;99.90;;;;;;5052315;28;20369;-65
2022/05/09 13:05:43;;;;;;;9.85;5.63;;;21.80;99.90;;;;;;5062057;28;20456;-66
2022/05/09 13:08:13;;;;;;;13.13;6.18;;;22.00;99.90;;;;;;5058649;28;20421;-65
2022/05/09 13:10:52;;;;;;;5.85;5.25;;;22.20;99.90;;;;;;5052184;28;20051;-64
2022/05/09 13:13:30;;;;;;;12.35;5.63;;;22.40;99.90;;;;;;5052257;28;20668;-64
2022/05/09 13:15:57;;;;;;;8.18;5.82;;;22.20;99.90;;;;;;5063813;28;20048;-65
2022/05/09 13:18:30;;;;;;;7.53;5.32;;;22.20;99.90;;;;;;5072344;28;20045;-65
2022/05/09 13:21:00;;;;;;;7.65;5.10;;;22.10;99.90;;;;;;5071861;28;20064;-65
2022/05/09 13:23:32;;;;;;;6.60;5.43;;;22.10;99.90;;;;;;5068242;28;20170;-64
2022/05/09 13:26:02;;;;;;;7.13;5.72;;;22.10;99.90;;;;;;5052110;28;20099;-64